sensor_id;sensor_type;location;lat;lon;timestamp;pressure;altitude;pressure_sealevel;temperature;humidity
64889;BME280;51386;53.082;8.816;2023-03-26T00:01:30;100305.50;;;14.08;57.18
64889;BME280;51386;53.082;8.816;2023-03-26T00:03:59;100311.00;;;14.06;57.35
64889;BME280;51386;53.082;8.816;2023-03-26T00:06:29;100307.34;;;14.01;57.44
64889;BME280;51386;53.082;8.816;2023-03-26T00:08:57;100312.03;;;13.99;57.64
64889;BME280;51386;53.082;8.816;2023-03-26T00:11:27;100314.09;;;13.97;57.73
64889;BME280;51386;53.082;8.816;2023-03-26T00:13:56;100307.59;;;13.93;57.59
64889;BME280;51386;53.082;8.816;2023-03-26T00:16:26;100316.53;;;13.92;57.65
64889;BME280;51386;53.082;8.816;2023-03-26T00:18:55;100316.53;;;13.92;57.66
64889;BME280;51386;53.082;8.816;2023-03-26T00:21:26;100327.94;;;13.92;57.59
64889;BME280;51386;53.082;8.816;2023-03-26T00:23:56;100328.13;;;13.91;57.57
64889;BME280;51386;53.082;8.816;2023-03-26T00:26:25;100332.00;;;13.95;57.77
64889;BME280;51386;53.082;8.816;2023-03-26T00:28:52;100329.38;;;13.95;57.72
64889;BME280;51386;53.082;8.816;2023-03-26T00:31:20;100334.22;;;13.98;57.62
64889;BME280;51386;53.082;8.816;2023-03-26T00:33:50;100339.72;;;13.96;57.37
64889;BME280;51386;53.082;8.816;2023-03-26T00:36:24;100340.94;;;13.94;57.33
64889;BME280;51386;53.082;8.816;2023-03-26T00:38:52;100353.56;;;13.92;57.34
64889;BME280;51386;53.082;8.816;2023-03-26T00:41:23;100345.22;;;13.88;57.28
64889;BME280;51386;53.082;8.816;2023-03-26T00:43:58;100354.41;;;13.86;57.29
64889;BME280;51386;53.082;8.816;2023-03-26T00:46:29;100358.06;;;13.85;57.38
64889;BME280;51386;53.082;8.816;2023-03-26T00:48:57;100353.78;;;13.84;57.61
64889;BME280;51386;53.082;8.816;2023-03-26T00:51:27;100355.41;;;13.85;57.42
64889;BME280;51386;53.082;8.816;2023-03-26T00:53:55;100357.84;;;13.86;57.18
64889;BME280;51386;53.082;8.816;2023-03-26T00:56:23;100352.78;;;13.85;57.30
64889;BME280;51386;53.082;8.816;2023-03-26T00:58:50;100358.88;;;13.85;57.09
64889;BME280;51386;53.082;8.816;2023-03-26T01:01:21;100356.03;;;13.87;57.09
64889;BME280;51386;53.082;8.816;2023-03-26T01:03:55;100355.00;;;13.88;57.17
64889;BME280;51386;53.082;8.816;2023-03-26T01:06:38;100349.13;;;13.86;56.79
64889;BME280;51386;53.082;8.816;2023-03-26T01:09:14;100349.91;;;13.86;56.96
64889;BME280;51386;53.082;8.816;2023-03-26T01:11:43;100356.44;;;13.84;57.05
64889;BME280;51386;53.082;8.816;2023-03-26T01:14:15;100352.56;;;13.80;56.91
64889;BME280;51386;53.082;8.816;2023-03-26T01:16:46;100357.25;;;13.78;56.92
64889;BME280;51386;53.082;8.816;2023-03-26T01:19:24;100359.31;;;13.76;56.69
64889;BME280;51386;53.082;8.816;2023-03-26T01:21:54;100356.66;;;13.76;56.92
64889;BME280;51386;53.082;8.816;2023-03-26T01:24:22;100361.34;;;13.74;56.84
64889;BME280;51386;53.082;8.816;2023-03-26T01:30:09;100358.50;;;13.69;56.71
64889;BME280;51386;53.082;8.816;2023-03-26T01:32:50;100358.88;;;13.66;56.62
64889;BME280;51386;53.082;8.816;2023-03-26T01:35:32;100359.28;;;13.63;56.47
64889;BME280;51386;53.082;8.816;2023-03-26T01:38:12;100358.91;;;13.59;56.51
64889;BME280;51386;53.082;8.816;2023-03-26T01:40:51;100357.47;;;13.56;56.87
64889;BME280;51386;53.082;8.816;2023-03-26T01:43:28;100362.34;;;13.60;56.59
64889;BME280;51386;53.082;8.816;2023-03-26T01:46:03;100350.75;;;13.61;56.68
64889;BME280;51386;53.082;8.816;2023-03-26T01:48:33;100360.31;;;13.62;56.58
64889;BME280;51386;53.082;8.816;2023-03-26T01:51:02;100352.38;;;13.62;56.68
64889;BME280;51386;53.082;8.816;2023-03-26T01:53:30;100352.38;;;13.62;56.69
64889;BME280;51386;53.082;8.816;2023-03-26T01:56:09;100353.38;;;13.61;56.79
64889;BME280;51386;53.082;8.816;2023-03-26T01:58:53;100365.78;;;13.60;56.94
64889;BME280;51386;53.082;8.816;2023-03-26T02:01:27;100360.50;;;13.60;56.53
64889;BME280;51386;53.082;8.816;2023-03-26T02:04:05;100358.06;;;13.58;56.69
64889;BME280;51386;53.082;8.816;2023-03-26T02:06:41;100360.13;;;13.56;56.76
64889;BME280;51386;53.082;8.816;2023-03-26T02:09:15;100356.84;;;13.54;56.68
64889;BME280;51386;53.082;8.816;2023-03-26T02:11:47;100365.59;;;13.55;56.60
64889;BME280;51386;53.082;8.816;2023-03-26T02:14:16;100352.34;;;13.55;56.89
64889;BME280;51386;53.082;8.816;2023-03-26T02:16:43;100358.06;;;13.58;56.74
64889;BME280;51386;53.082;8.816;2023-03-26T02:19:13;100359.72;;;13.60;56.54
64889;BME280;51386;53.082;8.816;2023-03-26T02:21:47;100363.38;;;13.58;56.66
64889;BME280;51386;53.082;8.816;2023-03-26T02:24:17;100350.75;;;13.61;56.46
64889;BME280;51386;53.082;8.816;2023-03-26T02:26:46;100347.09;;;13.62;56.33
64889;BME280;51386;53.082;8.816;2023-03-26T02:29:14;100344.25;;;13.63;56.25
64889;BME280;51386;53.082;8.816;2023-03-26T02:31:46;100350.34;;;13.64;56.13
64889;BME280;51386;53.082;8.816;2023-03-26T02:34:14;100340.38;;;13.66;55.96
64889;BME280;51386;53.082;8.816;2023-03-26T02:36:41;100344.03;;;13.65;55.73
64889;BME280;51386;53.082;8.816;2023-03-26T02:39:11;100340.38;;;13.66;55.65
64889;BME280;51386;53.082;8.816;2023-03-26T02:41:40;100342.81;;;13.67;55.69
64889;BME280;51386;53.082;8.816;2023-03-26T02:44:08;100340.16;;;13.67;55.54
64889;BME280;51386;53.082;8.816;2023-03-26T02:46:35;100339.75;;;13.70;55.62
64889;BME280;51386;53.082;8.816;2023-03-26T02:49:02;100334.06;;;13.73;55.56
64889;BME280;51386;53.082;8.816;2023-03-26T02:51:29;100333.44;;;13.78;55.49
64889;BME280;51386;53.082;8.816;2023-03-26T02:54:00;100334.06;;;13.80;55.38
64889;BME280;51386;53.082;8.816;2023-03-26T02:56:28;100338.34;;;13.81;55.06
64889;BME280;51386;53.082;8.816;2023-03-26T02:58:55;100332.00;;;13.82;55.31
64889;BME280;51386;53.082;8.816;2023-03-26T03:01:23;100333.66;;;13.83;55.33
64889;BME280;51386;53.082;8.816;2023-03-26T03:03:50;100332.00;;;13.82;55.49
64889;BME280;51386;53.082;8.816;2023-03-26T03:06:17;100333.66;;;13.83;55.49
64889;BME280;51386;53.082;8.816;2023-03-26T03:08:45;100325.50;;;13.84;55.46
64889;BME280;51386;53.082;8.816;2023-03-26T03:11:15;100318.59;;;13.83;55.43
64889;BME280;51386;53.082;8.816;2023-03-26T03:13:44;100326.53;;;13.83;55.47
64889;BME280;51386;53.082;8.816;2023-03-26T03:16:11;100330.41;;;13.81;55.48
64889;BME280;51386;53.082;8.816;2023-03-26T03:18:39;100320.59;;;13.81;55.55
64889;BME280;51386;53.082;8.816;2023-03-26T03:21:06;100319.81;;;13.81;55.51
64889;BME280;51386;53.082;8.816;2023-03-26T03:23:34;100322.25;;;13.82;55.58
64889;BME280;51386;53.082;8.816;2023-03-26T03:26:01;100322.25;;;13.82;55.55
64889;BME280;51386;53.082;8.816;2023-03-26T03:28:28;100325.13;;;13.81;55.41
64889;BME280;51386;53.082;8.816;2023-03-26T03:30:56;100328.75;;;13.80;55.45
64889;BME280;51386;53.082;8.816;2023-03-26T03:33:24;100330.41;;;13.81;55.54
64889;BME280;51386;53.082;8.816;2023-03-26T03:35:53;100327.53;;;13.82;55.25
64889;BME280;51386;53.082;8.816;2023-03-26T03:38:20;100330.78;;;13.84;55.15
64889;BME280;51386;53.082;8.816;2023-03-26T03:40:47;100329.19;;;13.83;55.06
64889;BME280;51386;53.082;8.816;2023-03-26T03:43:14;100332.00;;;13.82;54.70
64889;BME280;51386;53.082;8.816;2023-03-26T03:45:41;100331.41;;;13.80;54.59
64889;BME280;51386;53.082;8.816;2023-03-26T03:48:08;100334.28;;;13.78;54.35
64889;BME280;51386;53.082;8.816;2023-03-26T03:50:35;100324.69;;;13.77;53.94
64889;BME280;51386;53.082;8.816;2023-03-26T03:53:03;100330.19;;;13.76;53.77
64889;BME280;51386;53.082;8.816;2023-03-26T03:55:31;100335.06;;;13.72;53.47
64889;BME280;51386;53.082;8.816;2023-03-26T03:57:59;100332.44;;;13.72;53.42
64889;BME280;51386;53.082;8.816;2023-03-26T04:00:26;100333.66;;;13.70;53.06
64889;BME280;51386;53.082;8.816;2023-03-26T04:02:53;100332.03;;;13.69;53.19
64889;BME280;51386;53.082;8.816;2023-03-26T04:05:20;100331.00;;;13.70;52.94
64889;BME280;51386;53.082;8.816;2023-03-26T04:07:48;100336.50;;;13.68;52.75
64889;BME280;51386;53.082;8.816;2023-03-26T04:10:17;100336.09;;;13.65;52.72
64889;BME280;51386;53.082;8.816;2023-03-26T04:12:44;100328.38;;;13.63;52.71
64889;BME280;51386;53.082;8.816;2023-03-26T04:15:11;100328.38;;;13.63;52.87
64889;BME280;51386;53.082;8.816;2023-03-26T04:17:38;100327.56;;;13.63;52.68
64889;BME280;51386;53.082;8.816;2023-03-26T04:20:10;100316.97;;;13.63;52.71
64889;BME280;51386;53.082;8.816;2023-03-26T04:22:42;100321.44;;;13.62;52.80
64889;BME280;51386;53.082;8.816;2023-03-26T04:25:11;100327.56;;;13.63;52.69
64889;BME280;51386;53.082;8.816;2023-03-26T04:27:40;100324.31;;;13.61;52.58
64889;BME280;51386;53.082;8.816;2023-03-26T04:30:13;100324.31;;;13.61;52.48
64889;BME280;51386;53.082;8.816;2023-03-26T04:32:43;100319.00;;;13.61;52.36
64889;BME280;51386;53.082;8.816;2023-03-26T04:35:13;100314.94;;;13.58;52.25
64889;BME280;51386;53.082;8.816;2023-03-26T04:37:43;100320.44;;;13.56;52.51
64889;BME280;51386;53.082;8.816;2023-03-26T04:40:15;100325.13;;;13.54;52.40
64889;BME280;51386;53.082;8.816;2023-03-26T04:42:44;100313.94;;;13.52;52.35
64889;BME280;51386;53.082;8.816;2023-03-26T04:45:13;100314.94;;;13.51;52.60
64889;BME280;51386;53.082;8.816;2023-03-26T04:47:40;100313.94;;;13.52;52.63
64889;BME280;51386;53.082;8.816;2023-03-26T04:50:10;100316.59;;;13.52;52.51
64889;BME280;51386;53.082;8.816;2023-03-26T04:52:38;100308.66;;;13.52;52.33
64889;BME280;51386;53.082;8.816;2023-03-26T04:55:16;100304.78;;;13.48;52.11
64889;BME280;51386;53.082;8.816;2023-03-26T04:57:52;100314.34;;;13.49;52.17
64889;BME280;51386;53.082;8.816;2023-03-26T05:00:22;100313.75;;;13.47;51.87
64889;BME280;51386;53.082;8.816;2023-03-26T05:02:49;100316.56;;;13.46;51.68
64889;BME280;51386;53.082;8.816;2023-03-26T05:05:16;100314.53;;;13.41;51.49
64889;BME280;51386;53.082;8.816;2023-03-26T05:07:44;100323.09;;;13.37;51.00
64889;BME280;51386;53.082;8.816;2023-03-26T05:10:13;100324.91;;;13.30;50.92
64889;BME280;51386;53.082;8.816;2023-03-26T05:12:41;100323.47;;;13.27;50.85
64889;BME280;51386;53.082;8.816;2023-03-26T05:15:12;100331.63;;;13.26;50.63
64889;BME280;51386;53.082;8.816;2023-03-26T05:17:40;100325.91;;;13.22;50.26
64889;BME280;51386;53.082;8.816;2023-03-26T05:20:18;100321.84;;;13.20;50.32
64889;BME280;51386;53.082;8.816;2023-03-26T05:22:47;100320.63;;;13.22;50.02
64889;BME280;51386;53.082;8.816;2023-03-26T05:25:16;100325.50;;;13.25;50.14
64889;BME280;51386;53.082;8.816;2023-03-26T05:27:43;100323.47;;;13.27;49.92
64889;BME280;51386;53.082;8.816;2023-03-26T05:30:15;100324.31;;;13.28;49.45
64889;BME280;51386;53.082;8.816;2023-03-26T05:32:42;100319.63;;;13.30;49.45
64889;BME280;51386;53.082;8.816;2023-03-26T05:35:10;100316.16;;;13.29;49.26
64889;BME280;51386;53.082;8.816;2023-03-26T05:37:38;100320.84;;;13.27;48.89
64889;BME280;51386;53.082;8.816;2023-03-26T05:40:07;100320.84;;;13.27;48.75
64889;BME280;51386;53.082;8.816;2023-03-26T05:42:38;100325.31;;;13.27;48.51
64889;BME280;51386;53.082;8.816;2023-03-26T05:45:07;100321.88;;;13.26;48.76
64889;BME280;51386;53.082;8.816;2023-03-26T05:47:37;100325.13;;;13.28;48.50
64889;BME280;51386;53.082;8.816;2023-03-26T05:50:06;100330.41;;;13.28;48.57
64889;BME280;51386;53.082;8.816;2023-03-26T05:52:33;100329.97;;;13.31;48.19
64889;BME280;51386;53.082;8.816;2023-03-26T05:55:00;100319.41;;;13.31;48.22
64889;BME280;51386;53.082;8.816;2023-03-26T05:57:28;100329.59;;;13.34;47.63
64889;BME280;51386;53.082;8.816;2023-03-26T05:59:55;100328.38;;;13.30;47.40
64889;BME280;51386;53.082;8.816;2023-03-26T06:02:22;100323.69;;;13.32;47.84
64889;BME280;51386;53.082;8.816;2023-03-26T06:04:51;100324.28;;;13.34;47.84
64889;BME280;51386;53.082;8.816;2023-03-26T06:07:18;100332.03;;;13.36;47.89
64889;BME280;51386;53.082;8.816;2023-03-26T06:09:46;100323.91;;;13.37;47.94
64889;BME280;51386;53.082;8.816;2023-03-26T06:12:14;100324.28;;;13.41;47.67
64889;BME280;51386;53.082;8.816;2023-03-26T06:14:41;100317.78;;;13.43;47.85
64889;BME280;51386;53.082;8.816;2023-03-26T06:17:09;100321.03;;;13.45;47.82
64889;BME280;51386;53.082;8.816;2023-03-26T06:19:36;100313.09;;;13.45;47.91
64889;BME280;51386;53.082;8.816;2023-03-26T06:22:05;100310.06;;;13.48;47.99
64889;BME280;51386;53.082;8.816;2023-03-26T06:24:32;100315.78;;;13.52;48.08
64889;BME280;51386;53.082;8.816;2023-03-26T06:27:00;100310.88;;;13.55;48.04
64889;BME280;51386;53.082;8.816;2023-03-26T06:29:27;100314.94;;;13.58;47.77
64889;BME280;51386;53.082;8.816;2023-03-26T06:31:54;100312.13;;;13.60;47.98
64889;BME280;51386;53.082;8.816;2023-03-26T06:34:22;100316.38;;;13.61;47.87
64889;BME280;51386;53.082;8.816;2023-03-26T06:36:49;100320.66;;;13.62;47.97
64889;BME280;51386;53.082;8.816;2023-03-26T06:39:20;100313.50;;;13.62;47.72
64889;BME280;51386;53.082;8.816;2023-03-26T06:41:47;100320.22;;;13.65;47.89
64889;BME280;51386;53.082;8.816;2023-03-26T06:44:13;100313.72;;;13.67;48.09
64889;BME280;51386;53.082;8.816;2023-03-26T06:46:41;100323.66;;;13.72;47.87
64889;BME280;51386;53.082;8.816;2023-03-26T06:49:08;100325.91;;;13.75;47.94
64889;BME280;51386;53.082;8.816;2023-03-26T06:51:35;100333.66;;;13.76;48.03
64889;BME280;51386;53.082;8.816;2023-03-26T06:54:04;100329.97;;;13.77;47.88
64889;BME280;51386;53.082;8.816;2023-03-26T06:56:32;100336.09;;;13.78;47.84
64889;BME280;51386;53.082;8.816;2023-03-26T06:58:59;100335.28;;;13.77;48.04
64889;BME280;51386;53.082;8.816;2023-03-26T07:01:26;100333.44;;;13.78;47.92
64889;BME280;51386;53.082;8.816;2023-03-26T07:03:53;100336.50;;;13.75;48.11
64889;BME280;51386;53.082;8.816;2023-03-26T07:06:20;100335.28;;;13.77;48.03
64889;BME280;51386;53.082;8.816;2023-03-26T07:08:47;100336.91;;;13.78;48.28
64889;BME280;51386;53.082;8.816;2023-03-26T07:11:14;100333.06;;;13.81;48.18
64889;BME280;51386;53.082;8.816;2023-03-26T07:13:43;100330.41;;;13.81;48.29
64889;BME280;51386;53.082;8.816;2023-03-26T07:16:11;100331.63;;;13.78;48.13
64889;BME280;51386;53.082;8.816;2023-03-26T07:18:39;100325.50;;;13.78;48.27
64889;BME280;51386;53.082;8.816;2023-03-26T07:21:08;100321.84;;;13.79;48.28
64889;BME280;51386;53.082;8.816;2023-03-26T07:23:35;100318.59;;;13.77;48.22
64889;BME280;51386;53.082;8.816;2023-03-26T07:26:20;100321.22;;;13.77;48.35
64889;BME280;51386;53.082;8.816;2023-03-26T07:28:59;100319.00;;;13.80;48.28
64889;BME280;51386;53.082;8.816;2023-03-26T07:31:41;100316.75;;;13.84;48.42
64889;BME280;51386;53.082;8.816;2023-03-26T07:34:30;100316.75;;;13.84;48.18
64889;BME280;51386;53.082;8.816;2023-03-26T07:37:07;100319.38;;;13.84;48.12
64889;BME280;51386;53.082;8.816;2023-03-26T07:39:44;100319.81;;;13.81;48.16
64889;BME280;51386;53.082;8.816;2023-03-26T07:42:29;100321.22;;;13.77;47.28
64889;BME280;51386;53.082;8.816;2023-03-26T07:45:15;100325.53;;;13.71;46.76
64889;BME280;51386;53.082;8.816;2023-03-26T07:47:47;100321.03;;;13.65;46.71
64889;BME280;51386;53.082;8.816;2023-03-26T07:50:17;100319.84;;;13.61;46.69
64889;BME280;51386;53.082;8.816;2023-03-26T07:52:46;100321.06;;;13.58;46.82
64889;BME280;51386;53.082;8.816;2023-03-26T07:55:15;100315.75;;;13.58;46.49
64889;BME280;51386;53.082;8.816;2023-03-26T07:58:34;100314.56;;;13.54;46.48
64889;BME280;51386;53.082;8.816;2023-03-26T08:01:11;100307.22;;;13.63;46.61
64889;BME280;51386;53.082;8.816;2023-03-26T08:03:58;100315.75;;;13.72;45.93
64889;BME280;51386;53.082;8.816;2023-03-26T08:06:58;100316.53;;;13.79;45.47
64889;BME280;51386;53.082;8.816;2023-03-26T08:09:33;100319.38;;;13.84;45.30
64889;BME280;51386;53.082;8.816;2023-03-26T08:12:16;100313.69;;;13.87;44.96
64889;BME280;51386;53.082;8.816;2023-03-26T08:14:58;100307.59;;;13.93;45.00
64889;BME280;51386;53.082;8.816;2023-03-26T08:17:35;100312.03;;;13.99;44.38
64889;BME280;51386;53.082;8.816;2023-03-26T08:20:22;100307.94;;;14.03;44.09
64889;BME280;51386;53.082;8.816;2023-03-26T08:23:00;100314.03;;;14.10;43.74
64889;BME280;51386;53.082;8.816;2023-03-26T08:25:32;100307.34;;;14.14;43.79
64889;BME280;51386;53.082;8.816;2023-03-26T08:28:27;100306.91;;;14.17;43.11
64889;BME280;51386;53.082;8.816;2023-03-26T08:30:58;100318.50;;;14.22;43.12
64889;BME280;51386;53.082;8.816;2023-03-26T08:33:30;100317.69;;;14.22;42.87
64889;BME280;51386;53.082;8.816;2023-03-26T08:35:58;100324.59;;;14.23;43.09
64889;BME280;51386;53.082;8.816;2023-03-26T08:38:25;100312.97;;;14.24;42.76
64889;BME280;51386;53.082;8.816;2023-03-26T08:44:43;100320.72;;;14.25;42.92
64889;BME280;51386;53.082;8.816;2023-03-26T08:51:24;100321.75;;;14.31;42.79
64889;BME280;51386;53.082;8.816;2023-03-26T08:54:38;100315.63;;;14.37;42.75
64889;BME280;51386;53.082;8.816;2023-03-26T08:57:37;100322.31;;;14.46;42.61
64889;BME280;51386;53.082;8.816;2023-03-26T09:00:38;100318.41;;;14.55;42.46
64889;BME280;51386;53.082;8.816;2023-03-26T09:03:42;100323.28;;;14.58;42.45
64889;BME280;51386;53.082;8.816;2023-03-26T09:06:51;100326.53;;;14.60;42.14
64889;BME280;51386;53.082;8.816;2023-03-26T09:20:17;100323.50;;;14.95;41.54
64889;BME280;51386;53.082;8.816;2023-03-26T09:23:24;100327.53;;;15.04;41.17
64889;BME280;51386;53.082;8.816;2023-03-26T09:26:23;100321.34;;;15.10;41.27
64889;BME280;51386;53.082;8.816;2023-03-26T09:29:52;100324.81;;;15.10;39.99
64889;BME280;51386;53.082;8.816;2023-03-26T09:35:54;100323.63;;;15.06;40.04
64889;BME280;51386;53.082;8.816;2023-03-26T09:38:43;100333.25;;;15.01;39.75
64889;BME280;51386;53.082;8.816;2023-03-26T09:41:17;100328.34;;;14.98;40.00
64889;BME280;51386;53.082;8.816;2023-03-26T09:44:23;100330.59;;;15.01;39.73
64889;BME280;51386;53.082;8.816;2023-03-26T09:47:27;100340.19;;;15.02;39.65
64889;BME280;51386;53.082;8.816;2023-03-26T09:50:17;100341.00;;;15.02;39.18
64889;BME280;51386;53.082;8.816;2023-03-26T09:53:11;100334.66;;;15.03;39.60
64889;BME280;51386;53.082;8.816;2023-03-26T09:56:06;100334.00;;;15.08;39.61
64889;BME280;51386;53.082;8.816;2023-03-26T09:58:57;100334.78;;;15.15;39.27
64889;BME280;51386;53.082;8.816;2023-03-26T10:01:38;100334.75;;;15.21;39.23
64889;BME280;51386;53.082;8.816;2023-03-26T10:04:44;100336.31;;;15.29;39.13
64889;BME280;51386;53.082;8.816;2023-03-26T10:07:40;100331.34;;;15.39;38.73
64889;BME280;51386;53.082;8.816;2023-03-26T10:10:23;100343.59;;;15.40;38.16
64889;BME280;51386;53.082;8.816;2023-03-26T10:13:02;100341.97;;;15.39;38.44
64889;BME280;51386;53.082;8.816;2023-03-26T10:16:03;100329.13;;;15.36;38.59
64889;BME280;51386;53.082;8.816;2023-03-26T10:18:46;100334.59;;;15.41;38.01
64889;BME280;51386;53.082;8.816;2023-03-26T10:21:21;100331.88;;;15.54;38.48
64889;BME280;51386;53.082;8.816;2023-03-26T10:24:19;100326.91;;;15.64;38.21
64889;BME280;51386;53.082;8.816;2023-03-26T10:27:25;100320.13;;;15.68;38.10
64889;BME280;51386;53.082;8.816;2023-03-26T10:33:20;100323.69;;;15.80;38.15
64889;BME280;51386;53.082;8.816;2023-03-26T10:36:08;100324.44;;;15.87;37.30
64889;BME280;51386;53.082;8.816;2023-03-26T10:39:11;100319.88;;;15.94;37.56
64889;BME280;51386;53.082;8.816;2023-03-26T10:42:18;100326.69;;;16.08;36.82
64889;BME280;51386;53.082;8.816;2023-03-26T10:45:11;100320.94;;;16.11;36.80
64889;BME280;51386;53.082;8.816;2023-03-26T10:48:11;100321.53;;;16.13;36.72
64889;BME280;51386;53.082;8.816;2023-03-26T10:50:53;100316.72;;;16.22;36.84
64889;BME280;51386;53.082;8.816;2023-03-26T10:53:33;100322.31;;;16.32;36.76
64889;BME280;51386;53.082;8.816;2023-03-26T10:56:16;100319.38;;;16.40;36.58
64889;BME280;51386;53.082;8.816;2023-03-26T10:58:47;100323.75;;;16.53;36.68
64889;BME280;51386;53.082;8.816;2023-03-26T11:01:31;100323.13;;;16.69;36.03
64889;BME280;51386;53.082;8.816;2023-03-26T11:04:22;100323.69;;;16.89;35.83
64889;BME280;51386;53.082;8.816;2023-03-26T11:07:06;100320.50;;;17.10;35.86
64889;BME280;51386;53.082;8.816;2023-03-26T11:09:44;100312.22;;;17.18;34.61
64889;BME280;51386;53.082;8.816;2023-03-26T11:12:25;100330.84;;;17.18;34.81
64889;BME280;51386;53.082;8.816;2023-03-26T11:15:06;100326.81;;;17.27;35.18
64889;BME280;51386;53.082;8.816;2023-03-26T11:17:49;100332.00;;;17.34;35.08
64889;BME280;51386;53.082;8.816;2023-03-26T11:20:31;100335.25;;;17.36;34.29
64889;BME280;51386;53.082;8.816;2023-03-26T11:23:33;100338.94;;;17.23;34.27
64889;BME280;51386;53.082;8.816;2023-03-26T11:26:09;100334.06;;;17.20;34.26
64889;BME280;51386;53.082;8.816;2023-03-26T11:29:05;100338.34;;;17.21;34.52
64889;BME280;51386;53.082;8.816;2023-03-26T11:32:04;100332.47;;;17.31;34.36
64889;BME280;51386;53.082;8.816;2023-03-26T11:34:36;100332.81;;;17.34;33.95
64889;BME280;51386;53.082;8.816;2023-03-26T11:37:14;100333.28;;;17.31;33.83
64889;BME280;51386;53.082;8.816;2023-03-26T11:39:49;100327.13;;;17.31;33.99
64889;BME280;51386;53.082;8.816;2023-03-26T11:42:22;100328.06;;;17.25;33.11
64889;BME280;51386;53.082;8.816;2023-03-26T11:44:54;100337.19;;;17.17;33.00
64889;BME280;51386;53.082;8.816;2023-03-26T11:47:29;100337.19;;;17.17;33.52
64889;BME280;51386;53.082;8.816;2023-03-26T11:49:59;100337.34;;;17.34;33.38
64889;BME280;51386;53.082;8.816;2023-03-26T11:52:29;100331.00;;;17.46;32.89
64889;BME280;51386;53.082;8.816;2023-03-26T11:54:56;100324.31;;;17.55;32.58
64889;BME280;51386;53.082;8.816;2023-03-26T11:57:29;100325.03;;;17.63;32.57
64889;BME280;51386;53.082;8.816;2023-03-26T12:00:04;100321.66;;;17.79;32.88
64889;BME280;51386;53.082;8.816;2023-03-26T12:02:46;100317.69;;;18.27;32.83
64889;BME280;51386;53.082;8.816;2023-03-26T12:05:18;100315.28;;;19.39;31.49
64889;BME280;51386;53.082;8.816;2023-03-26T12:07:52;100312.50;;;20.87;30.04
64889;BME280;51386;53.082;8.816;2023-03-26T12:10:28;100311.75;;;21.87;28.87
64889;BME280;51386;53.082;8.816;2023-03-26T12:13:00;100314.50;;;22.02;27.14
64889;BME280;51386;53.082;8.816;2023-03-26T12:15:29;100311.34;;;22.10;26.62
64889;BME280;51386;53.082;8.816;2023-03-26T12:18:18;100310.69;;;21.88;26.79
64889;BME280;51386;53.082;8.816;2023-03-26T12:20:47;100316.41;;;21.65;26.59
64889;BME280;51386;53.082;8.816;2023-03-26T12:26:16;100314.94;;;20.67;27.24
64889;BME280;51386;53.082;8.816;2023-03-26T12:28:46;100312.59;;;20.49;27.40
64889;BME280;51386;53.082;8.816;2023-03-26T12:31:16;100313.59;;;20.43;27.57
64889;BME280;51386;53.082;8.816;2023-03-26T12:34:06;100305.50;;;20.38;27.95
64889;BME280;51386;53.082;8.816;2023-03-26T12:36:35;100306.75;;;20.30;27.70
64889;BME280;51386;53.082;8.816;2023-03-26T12:39:31;100301.88;;;20.70;27.33
64889;BME280;51386;53.082;8.816;2023-03-26T12:42:28;100314.81;;;21.69;26.87
64889;BME280;51386;53.082;8.816;2023-03-26T12:45:19;100304.56;;;22.59;26.02
64889;BME280;51386;53.082;8.816;2023-03-26T12:47:49;100308.75;;;23.22;24.98
64889;BME280;51386;53.082;8.816;2023-03-26T12:50:39;100306.56;;;23.85;24.22
64889;BME280;51386;53.082;8.816;2023-03-26T12:53:32;100304.06;;;24.23;23.95
64889;BME280;51386;53.082;8.816;2023-03-26T12:56:18;100305.13;;;24.28;23.93
64889;BME280;51386;53.082;8.816;2023-03-26T12:59:32;100307.88;;;24.12;23.54
64889;BME280;51386;53.082;8.816;2023-03-26T13:02:27;100307.44;;;23.50;24.21
64889;BME280;51386;53.082;8.816;2023-03-26T13:05:29;100308.97;;;22.90;24.57
64889;BME280;51386;53.082;8.816;2023-03-26T13:08:17;100306.06;;;22.30;24.70
64889;BME280;51386;53.082;8.816;2023-03-26T13:10:55;100313.19;;;21.63;25.43
64889;BME280;51386;53.082;8.816;2023-03-26T13:13:55;100311.16;;;20.89;26.01
64889;BME280;51386;53.082;8.816;2023-03-26T13:16:35;100314.88;;;20.62;26.83
64889;BME280;51386;53.082;8.816;2023-03-26T13:19:13;100308.47;;;20.84;26.46
64889;BME280;51386;53.082;8.816;2023-03-26T13:21:58;100306.34;;;21.13;25.48
64889;BME280;51386;53.082;8.816;2023-03-26T13:24:41;100300.75;;;21.46;25.05
64889;BME280;51386;53.082;8.816;2023-03-26T13:27:23;100299.59;;;21.74;25.78
64889;BME280;51386;53.082;8.816;2023-03-26T13:29:59;100300.59;;;21.68;25.52
64889;BME280;51386;53.082;8.816;2023-03-26T13:32:46;100299.75;;;21.57;25.55
64889;BME280;51386;53.082;8.816;2023-03-26T13:35:26;100295.94;;;21.48;25.44
64889;BME280;51386;53.082;8.816;2023-03-26T13:38:05;100298.38;;;21.23;25.68
64889;BME280;51386;53.082;8.816;2023-03-26T13:40:48;100294.91;;;20.96;26.25
64889;BME280;51386;53.082;8.816;2023-03-26T13:43:30;100305.81;;;20.63;26.49
64889;BME280;51386;53.082;8.816;2023-03-26T13:46:07;100301.41;;;20.30;26.96
64889;BME280;51386;53.082;8.816;2023-03-26T13:48:47;100301.16;;;19.93;27.13
64889;BME280;51386;53.082;8.816;2023-03-26T13:51:22;100309.78;;;19.62;27.77
64889;BME280;51386;53.082;8.816;2023-03-26T13:53:59;100302.75;;;19.56;28.07
64889;BME280;51386;53.082;8.816;2023-03-26T13:56:37;100298.94;;;19.52;27.87
64889;BME280;51386;53.082;8.816;2023-03-26T13:59:15;100302.41;;;19.69;27.50
64889;BME280;51386;53.082;8.816;2023-03-26T14:01:52;100301.31;;;20.03;27.24
64889;BME280;51386;53.082;8.816;2023-03-26T14:04:26;100299.72;;;20.46;26.63
64889;BME280;51386;53.082;8.816;2023-03-26T14:07:07;100291.88;;;20.87;26.60